Bourbonnais, IL (60914)

1:55 PM CDT on September 30, 2016 (GMT -0500)
Dennison Drive | | Change Station

Elev 728 ft 41.17 °N, 87.88 °W | Updated 4 minutes ago

Overcast
Overcast
64.8 °F
Feels Like 64.8 °F
N
4.3
Wind Variable Wind from NNE
Gusts 8.7 mph

Today
High -- | Low -- °F
--% Chance of Precip.
Yesterday
High -- | Low -- °F
Precip. -- in
Pressure 30.07 in
Visibility 10.0 miles
Clouds Mostly Cloudy 1600 ft
Overcast 2400 ft
Dew Point 61 °F
Humidity 88%
Rainfall 0.00 in
Snow Depth Not available.
6:47 AM 6:34 PM
Waning Crescent, 0% visible
METAR KIKK 301835Z AUTO 03007KT 360V060 10SM BKN016 OVC024 19/16 A3007 RMK AO2 T01850157
Pressure 30.07 in
Visibility 10.0 miles
Clouds Mostly Cloudy 1600 ft
Overcast 2400 ft
Dew Point 61 °F
Humidity 88%
Rainfall 0.00 in
Snow Depth Not available.
6:47 AM 6:34 PM
Waning Crescent, 0% visible
METAR KIKK 301835Z AUTO 03007KT 360V060 10SM BKN016 OVC024 19/16 A3007 RMK AO2 T01850157

10-Day Weather Forecast

Almanac

Astronomy

Sep. 30, 2016 Rise Set
Actual Time
Civil Twilight
Nautical Twilight
Astronomical Twilight
Moon
Length of Visible Light
Length of Day
Tomorrow will be .
, % of the Moon is Illuminated

Today's Extremes

State Highs State Lows

Community

WunderPhotos

Upload Photos

1,942,755 photos uploaded!

WunderBlog® & News

Nearby

Air Quality

  Air Quality AQ Index Pollutant
Not available.

Snow Depth

Station Depth Elevation

Earthquake Activity

City Distance Mag. Time & Date
Minimum magnitude displayed is 2.5.

Coastal Water Temperatures

Place Temperature

Stations

Nearby Weather Stations

Station Location Temp. Windchill Dew Point Humidity Wind Precip. Elev Updated Type
                   

Watches & Warnings

There are currently no watches in effect.